Bankston, AL (35542)

5:51 AM CDT on July 24, 2014 (GMT -0500)
Windham Springs, AL (KALBERRY2) Elev 472 ft | 33.50 °N, 87.49 °W | Change Station

Current weather conditions updated 3 seconds ago

Partly Cloudy
Partly Cloudy
68.9 °F
Feels Like 68.9 °F
N
0.0
Wind Variable Wind from SE
Gusts 0.0 mph

Today is forecast to be Cooler than yesterday. Afternoon thunderstorms.

Today
High -- | Low -- °F
--% Chance of Precip.
Yesterday
High -- | Low -- °F
Precip. -- in
5:57 AM 7:56 PM
Waning Crescent, 6% visible
Pressure 29.99 in
Visibility 1.0 miles
Clouds Overcast 100 ft
Dew Point 69 °F
Humidity 99%
Rainfall 0.00 in
Snow Depth Not available.
UV 0 out of 12
Pollen 2.20 out of 12
Ozone Good
PM2.5 Good
Flu Activity Not available.
METAR KJFX 241035Z AUTO 00000KT 1SM BR OVC001 21/21 A2999 RMK A02 P-128

More Conditions Fewer Conditions

Pressure 29.99 in
Visibility 1.0 miles
Clouds Overcast 100 ft
Dew Point 69 °F
Humidity 99%
Rainfall 0.00 in
Snow Depth Not available.
UV 0 out of 12
Pollen 2.20 out of 12
Ozone Good
PM2.5 Good
Flu Activity Not available.
METAR KJFX 241035Z AUTO 00000KT 1SM BR OVC001 21/21 A2999 RMK A02 P-128

More Conditions Fewer Conditions

10-Day Weather Forecast

Almanac

Astronomy

Jul. 24, 2014 Rise Set
Actual Time 5:57 AM CDT 7:56 PM CDT
Civil Twilight 5:29 AM CDT 8:24 PM CDT
Nautical Twilight 4:55 AM CDT 8:58 PM CDT
Astronomical Twilight 4:19 AM CDT 9:34 PM CDT
Moon 4:03 AM CDT 6:13 PM CDT
Length of Visible Light 14h 55m
Length of Day
13h 59m
Tomorrow will be 1m 21s shorter.
Waning Crescent, 6% of the Moon is Illuminated
Today
Waning Crescent
Jul 26
New
Aug 3
First Quarter
Aug 10
Full
Aug 17
Last Quarter

Today's Extremes

State Highs State Lows

Community

WunderPhotos

Upload Photos

1,736,966 photos uploaded!

Nearby

Air Quality

  Air Quality AQ Index Pollutant
Yesterday Good
PM10
Yesterday Good
OZONE
Current Good
PM2.5
Current Good
OZONE
Thursday Good
PM2.5
Thursday Good
OZONE

Snow Depth

Station Depth Elevation
No new snow has been reported.

Earthquake Activity

City Distance Mag. Time & Date
No recent earthquake activity has been reported nearby.
Minimum magnitude displayed is 2.5.

Coastal Water Temperatures

Place Temperature
No Stations Reporting

Nearby Weather Stations

Station Location Temp. Dew Point Humidity Wind Precip. Elev Updated Type
Windham Springs, AL, Berry, AL 68.9 °F 69 °F 99% SE  at  0.0 mph 0.00 in / hr 472 ft 5:51 AM CDT Normal
Prospect, Carbon Hill, AL 72.1 °F 69 °F 91% SW  at  0.0 mph - / hr 495 ft 5:49 AM CDT Normal
Grandview Drive II, Northport, AL 70.2 °F 70 °F 98% South  at  0.0 mph 0.00 in / hr 331 ft 5:51 AM CDT Normal
Grandview Drive I, Northport, AL 69.6 °F 70 °F 100% North  at  0.0 mph 0.00 in / hr 328 ft 5:50 AM CDT Normal

Show More Stations Show Fewer Stations